Time;durP1;ratioP1;P1;durP2;ratioP2;P2;SDS_P1;SDS_P2;PMS_P1;PMS_P2;Temp;Humidity;BMP_temperature;BMP_pressure;BME280_temperature;BME280_humidity;BME280_pressure;Samples;Min_cycle;Max_cycle;Signal;HPM_P1;HPM_P2
2023/05/18 00:00:22;;;;;;;4.63;2.75;;;;;;;;;;5037891;28;20638;-83
2023/05/18 00:02:48;;;;;;;4.50;2.97;;;;;;;;;;5055289;28;20086;-86
2023/05/18 00:05:16;;;;;;;5.80;2.95;;;;;;;;;;5047316;28;20033;-86
2023/05/18 00:07:42;;;;;;;5.07;3.03;;;;;;;;;;5043147;28;20036;-84
2023/05/18 00:10:08;;;;;;;6.03;3.05;;;;;;;;;;5023139;28;20037;-85
2023/05/18 00:12:34;;;;;;;4.65;2.75;;;;;;;;;;5037250;28;20071;-85
2023/05/18 00:14:59;;;;;;;6.85;2.85;;;;;;;;;;5033947;28;20038;-85
2023/05/18 00:17:25;;;;;;;7.15;3.00;;;;;;;;;;5034085;28;20163;-85
2023/05/18 00:19:50;;;;;;;7.97;3.00;;;;;;;;;;5031418;28;20040;-85
2023/05/18 00:22:19;;;;;;;5.80;2.65;;;;;;;;;;5031734;28;20060;-85
2023/05/18 00:24:45;;;;;;;6.38;2.67;;;;;;;;;;5014113;28;20026;-85
2023/05/18 00:27:11;;;;;;;6.10;2.75;;;;;;;;;;5038606;28;20116;-84
2023/05/18 00:29:36;;;;;;;5.00;2.58;;;;;;;;;;5031021;28;20133;-85
2023/05/18 00:32:02;;;;;;;6.25;3.00;;;;;;;;;;5017235;28;20041;-85
2023/05/18 00:34:28;;;;;;;6.75;3.13;;;;;;;;;;5024616;28;20029;-84
2023/05/18 00:36:54;;;;;;;5.95;3.08;;;;;;;;;;5017358;28;20573;-85
2023/05/18 00:39:19;;;;;;;7.03;3.00;;;;;;;;;;5019781;28;20034;-85
2023/05/18 00:41:45;;;;;;;7.05;3.00;;;;;;;;;;5034184;28;20036;-85
2023/05/18 00:44:11;;;;;;;6.72;3.45;;;;;;;;;;5035192;28;20024;-85
2023/05/18 00:46:36;;;;;;;4.35;2.97;;;;;;;;;;5044056;28;20032;-84
2023/05/18 00:49:02;;;;;;;4.32;2.72;;;;;;;;;;5023192;28;20029;-85
2023/05/18 00:51:30;;;;;;;4.15;2.70;;;;;;;;;;5033214;28;20075;-85
2023/05/18 00:53:58;;;;;;;4.60;2.65;;;;;;;;;;5034295;28;20029;-85
2023/05/18 00:56:25;;;;;;;3.90;2.60;;;;;;;;;;5017121;28;20526;-85
2023/05/18 00:58:56;;;;;;;4.13;2.80;;;;;;;;;;5015077;28;20064;-85
2023/05/18 01:01:35;;;;;;;4.93;2.63;;;;;;;;;;5012113;28;20026;-85
2023/05/18 01:04:01;;;;;;;4.90;2.80;;;;;;;;;;5036072;28;20108;-85
2023/05/18 01:06:39;;;;;;;4.43;2.80;;;;;;;;;;5035015;28;20075;-85
2023/05/18 01:09:08;;;;;;;4.40;2.40;;;;;;;;;;5034658;28;20036;-85
2023/05/18 01:12:05;;;;;;;5.75;2.85;;;;;;;;;;5042923;28;20059;-84
2023/05/18 01:14:37;;;;;;;4.40;2.83;;;;;;;;;;5002489;28;20033;-85
2023/05/18 01:17:22;;;;;;;4.20;2.65;;;;;;;;;;5032772;28;20033;-85
2023/05/18 01:19:50;;;;;;;3.88;2.75;;;;;;;;;;5034561;28;20041;-85
2023/05/18 01:22:41;;;;;;;6.45;3.00;;;;;;;;;;5016690;28;20159;-85
2023/05/18 01:25:53;;;;;;;5.93;3.20;;;;;;;;;;5015661;28;20052;-85
2023/05/18 01:28:31;;;;;;;4.93;2.90;;;;;;;;;;4991498;28;20398;-84
2023/05/18 01:30:57;;;;;;;5.47;2.80;;;;;;;;;;5016187;28;20032;-85
2023/05/18 01:33:24;;;;;;;6.18;3.63;;;;;;;;;;5034377;28;20535;-85
2023/05/18 01:35:50;;;;;;;8.50;4.40;;;;;;;;;;5015605;28;20038;-85
2023/05/18 01:38:19;;;;;;;7.93;4.50;;;;;;;;;;5008164;28;20034;-85
2023/05/18 01:41:10;;;;;;;5.55;3.30;;;;;;;;;;5019216;28;20025;-85
2023/05/18 01:43:40;;;;;;;7.75;3.80;;;;;;;;;;5021441;28;20037;-85
2023/05/18 01:46:24;;;;;;;6.28;3.90;;;;;;;;;;5031235;28;20025;-85
2023/05/18 01:49:05;;;;;;;6.07;3.28;;;;;;;;;;5032904;28;20052;-85
2023/05/18 01:51:34;;;;;;;7.57;3.15;;;;;;;;;;4994941;28;20044;-85
2023/05/18 01:54:06;;;;;;;5.75;3.00;;;;;;;;;;5035963;28;20116;-85
2023/05/18 01:56:33;;;;;;;4.63;2.78;;;;;;;;;;5016230;28;20021;-85
2023/05/18 01:58:59;;;;;;;6.43;2.83;;;;;;;;;;5014200;28;20125;-86
2023/05/18 02:01:25;;;;;;;6.68;2.55;;;;;;;;;;5027459;28;20487;-85
2023/05/18 02:03:50;;;;;;;4.57;2.58;;;;;;;;;;5023004;28;20061;-84
2023/05/18 02:06:16;;;;;;;5.10;2.60;;;;;;;;;;5037045;28;20042;-85
2023/05/18 02:08:42;;;;;;;4.90;2.80;;;;;;;;;;5015841;28;20067;-84
2023/05/18 02:11:08;;;;;;;6.05;2.70;;;;;;;;;;5015596;28;20120;-84
2023/05/18 02:13:33;;;;;;;5.68;2.88;;;;;;;;;;5033105;28;20029;-85
2023/05/18 02:15:59;;;;;;;4.72;2.40;;;;;;;;;;5033668;28;20025;-85
2023/05/18 02:18:27;;;;;;;3.75;2.50;;;;;;;;;;5019598;28;20030;-85
2023/05/18 02:20:59;;;;;;;4.50;2.40;;;;;;;;;;5038308;28;20036;-85
2023/05/18 02:23:25;;;;;;;7.10;2.78;;;;;;;;;;5031731;28;20496;-85
2023/05/18 02:25:54;;;;;;;5.63;3.13;;;;;;;;;;5031302;28;20034;-84
2023/05/18 02:28:20;;;;;;;5.82;3.40;;;;;;;;;;5015310;28;20033;-85
2023/05/18 02:30:46;;;;;;;5.28;3.80;;;;;;;;;;5001693;28;20022;-85
2023/05/18 02:33:11;;;;;;;6.13;3.60;;;;;;;;;;5015919;28;20056;-85
2023/05/18 02:35:37;;;;;;;4.57;3.20;;;;;;;;;;4999351;28;20037;-85
2023/05/18 02:38:03;;;;;;;6.22;2.92;;;;;;;;;;5015056;28;20025;-84
2023/05/18 02:40:28;;;;;;;4.65;2.70;;;;;;;;;;5015162;28;20116;-85
2023/05/18 02:42:54;;;;;;;4.38;2.47;;;;;;;;;;5032626;28;20152;-84
2023/05/18 02:45:20;;;;;;;6.47;2.42;;;;;;;;;;5014694;28;20029;-84
2023/05/18 02:47:46;;;;;;;6.22;2.72;;;;;;;;;;5032534;28;20033;-85
2023/05/18 02:50:11;;;;;;;4.47;2.80;;;;;;;;;;5029053;28;20116;-85
2023/05/18 02:52:38;;;;;;;4.30;2.78;;;;;;;;;;5025275;28;20065;-85
2023/05/18 02:55:05;;;;;;;4.93;2.90;;;;;;;;;;5020728;28;20040;-85
2023/05/18 02:57:55;;;;;;;4.30;2.40;;;;;;;;;;5034151;28;20037;-85
2023/05/18 03:00:24;;;;;;;9.30;2.95;;;;;;;;;;5030300;28;20039;-85
2023/05/18 03:02:50;;;;;;;5.35;2.60;;;;;;;;;;5012142;28;20119;-85
2023/05/18 03:05:15;;;;;;;4.35;2.88;;;;;;;;;;5024826;28;20044;-85
2023/05/18 03:07:44;;;;;;;5.13;3.28;;;;;;;;;;5021528;28;20486;-85
2023/05/18 03:10:10;;;;;;;5.53;2.85;;;;;;;;;;5030982;28;20029;-84
2023/05/18 03:12:36;;;;;;;5.72;2.78;;;;;;;;;;5014573;28;20033;-84
2023/05/18 03:15:01;;;;;;;4.68;2.63;;;;;;;;;;5014081;28;20025;-85
2023/05/18 03:17:27;;;;;;;3.78;2.50;;;;;;;;;;5022668;28;20067;-85
2023/05/18 03:19:56;;;;;;;3.72;2.60;;;;;;;;;;5039426;28;20037;-85
2023/05/18 03:22:21;;;;;;;4.50;2.60;;;;;;;;;;5017458;28;20036;-85
2023/05/18 03:24:50;;;;;;;6.50;2.58;;;;;;;;;;5014296;28;20030;-84
2023/05/18 03:27:17;;;;;;;4.68;2.55;;;;;;;;;;5014242;28;20029;-85
2023/05/18 03:29:44;;;;;;;4.85;2.47;;;;;;;;;;5031736;28;20380;-85
2023/05/18 03:32:11;;;;;;;4.10;2.60;;;;;;;;;;5013935;28;20044;-84
2023/05/18 03:34:37;;;;;;;5.38;2.70;;;;;;;;;;5018175;28;20033;-84
2023/05/18 03:37:03;;;;;;;4.53;2.67;;;;;;;;;;5031514;28;20071;-85
2023/05/18 03:39:31;;;;;;;3.95;2.70;;;;;;;;;;4997859;28;20029;-84
2023/05/18 03:41:56;;;;;;;5.18;2.70;;;;;;;;;;5024426;28;20140;-85
2023/05/18 03:44:22;;;;;;;4.40;2.70;;;;;;;;;;5012321;28;20026;-85
2023/05/18 03:46:48;;;;;;;2.78;2.22;;;;;;;;;;5025962;28;20505;-85
2023/05/18 03:49:13;;;;;;;3.97;2.67;;;;;;;;;;5024143;28;20021;-84
2023/05/18 03:51:41;;;;;;;4.72;2.90;;;;;;;;;;5030242;28;20120;-85
2023/05/18 03:54:06;;;;;;;7.30;2.70;;;;;;;;;;5043973;28;20025;-85
2023/05/18 03:56:32;;;;;;;5.10;2.83;;;;;;;;;;5022532;28;20491;-85
2023/05/18 03:58:58;;;;;;;3.75;2.63;;;;;;;;;;5001875;28;20507;-85
2023/05/18 04:01:23;;;;;;;4.38;2.60;;;;;;;;;;5032628;28;20506;-86
2023/05/18 04:03:50;;;;;;;4.65;2.95;;;;;;;;;;5027661;28;20033;-84
2023/05/18 04:06:16;;;;;;;5.75;3.05;;;;;;;;;;5042702;28;20036;-85
2023/05/18 04:08:42;;;;;;;4.47;2.72;;;;;;;;;;5010664;28;20022;-84
2023/05/18 04:11:08;;;;;;;5.32;3.00;;;;;;;;;;5041229;28;20117;-85
2023/05/18 04:13:37;;;;;;;4.32;2.80;;;;;;;;;;5019502;28;20025;-85
2023/05/18 04:16:03;;;;;;;4.35;2.65;;;;;;;;;;5017103;28;20483;-85
2023/05/18 04:18:29;;;;;;;6.15;2.95;;;;;;;;;;5017163;28;20047;-85
2023/05/18 04:20:55;;;;;;;4.18;2.58;;;;;;;;;;5023216;28;20039;-84
2023/05/18 04:23:21;;;;;;;4.35;2.67;;;;;;;;;;5016325;28;20120;-84
2023/05/18 04:25:48;;;;;;;4.55;3.20;;;;;;;;;;4998850;28;20423;-85
2023/05/18 04:28:15;;;;;;;5.22;3.28;;;;;;;;;;5016478;28;20035;-85
2023/05/18 04:30:40;;;;;;;8.45;3.10;;;;;;;;;;5034175;28;20030;-84
2023/05/18 04:33:06;;;;;;;6.45;3.40;;;;;;;;;;5005081;28;20034;-84
2023/05/18 04:35:31;;;;;;;4.32;2.88;;;;;;;;;;5026104;28;20429;-85
2023/05/18 04:37:57;;;;;;;5.95;3.30;;;;;;;;;;5028931;28;20490;-85
2023/05/18 04:40:24;;;;;;;6.00;2.88;;;;;;;;;;5038347;28;20037;-84
2023/05/18 04:42:50;;;;;;;4.90;3.33;;;;;;;;;;5032338;28;20040;-84
2023/05/18 04:45:20;;;;;;;6.65;3.28;;;;;;;;;;5028456;28;20116;-84
2023/05/18 04:47:52;;;;;;;4.47;2.97;;;;;;;;;;5034059;28;20054;-85
2023/05/18 04:50:19;;;;;;;7.40;2.92;;;;;;;;;;5016531;28;20108;-84
2023/05/18 04:52:47;;;;;;;8.07;3.78;;;;;;;;;;5021519;28;20048;-85
2023/05/18 04:55:27;;;;;;;5.97;3.35;;;;;;;;;;5032414;28;20033;-85
2023/05/18 04:58:03;;;;;;;8.02;3.80;;;;;;;;;;5009934;28;20029;-84
2023/05/18 05:00:29;;;;;;;8.23;4.63;;;;;;;;;;5041592;28;20382;-85
2023/05/18 05:02:56;;;;;;;7.32;4.20;;;;;;;;;;5037491;28;20063;-85
2023/05/18 05:05:22;;;;;;;6.13;4.05;;;;;;;;;;5016587;28;20025;-85
2023/05/18 05:07:52;;;;;;;7.47;3.83;;;;;;;;;;5015724;28;20034;-84
2023/05/18 05:10:19;;;;;;;5.78;3.60;;;;;;;;;;5033507;28;20044;-85
2023/05/18 05:12:45;;;;;;;7.15;3.40;;;;;;;;;;5038453;28;20041;-84
2023/05/18 05:15:11;;;;;;;11.25;4.47;;;;;;;;;;5019685;28;20037;-85
2023/05/18 05:17:37;;;;;;;7.03;3.92;;;;;;;;;;5032240;28;20036;-85
2023/05/18 05:20:07;;;;;;;8.45;3.63;;;;;;;;;;5030207;28;20054;-85
2023/05/18 05:22:33;;;;;;;6.05;3.30;;;;;;;;;;4999075;28;20108;-85
2023/05/18 05:24:59;;;;;;;7.20;3.28;;;;;;;;;;5015077;28;20606;-85
2023/05/18 05:27:25;;;;;;;8.57;4.03;;;;;;;;;;5027178;28;20120;-84
2023/05/18 05:29:51;;;;;;;5.15;3.63;;;;;;;;;;5014841;28;20018;-85
2023/05/18 05:32:16;;;;;;;8.60;3.13;;;;;;;;;;5006070;28;20109;-85
2023/05/18 05:34:45;;;;;;;6.05;3.35;;;;;;;;;;5039684;28;20380;-85
2023/05/18 05:37:12;;;;;;;4.30;3.03;;;;;;;;;;5009722;28;20029;-85
2023/05/18 05:39:37;;;;;;;5.78;3.00;;;;;;;;;;5020270;28;20399;-85
2023/05/18 05:42:05;;;;;;;6.68;3.10;;;;;;;;;;5017917;28;20032;-85
2023/05/18 05:44:30;;;;;;;7.10;3.28;;;;;;;;;;5030826;28;20440;-86
2023/05/18 05:46:56;;;;;;;6.32;3.17;;;;;;;;;;5029437;28;20032;-85
2023/05/18 05:49:21;;;;;;;5.32;3.05;;;;;;;;;;5032405;28;20483;-85
2023/05/18 05:51:47;;;;;;;7.25;3.13;;;;;;;;;;5022679;28;20034;-85
2023/05/18 05:54:13;;;;;;;5.70;3.28;;;;;;;;;;5018974;28;20041;-85
2023/05/18 05:56:39;;;;;;;8.00;3.15;;;;;;;;;;5021019;28;20115;-86
2023/05/18 05:59:05;;;;;;;6.68;3.58;;;;;;;;;;5030787;28;20117;-86
2023/05/18 06:01:31;;;;;;;6.65;3.53;;;;;;;;;;5027042;28;20028;-85
2023/05/18 06:03:57;;;;;;;7.93;3.78;;;;;;;;;;5021497;28;20032;-85
2023/05/18 06:06:22;;;;;;;7.68;3.53;;;;;;;;;;5037827;28;20374;-85
2023/05/18 06:08:48;;;;;;;8.10;3.97;;;;;;;;;;5003304;28;20024;-85
2023/05/18 06:11:15;;;;;;;8.23;3.30;;;;;;;;;;5031303;28;20121;-85
2023/05/18 06:13:41;;;;;;;6.20;3.03;;;;;;;;;;5045650;28;20104;-84
2023/05/18 06:16:06;;;;;;;5.80;2.90;;;;;;;;;;5022994;28;20112;-84
2023/05/18 06:18:33;;;;;;;6.60;3.20;;;;;;;;;;5019030;28;20033;-85
2023/05/18 06:21:02;;;;;;;6.70;3.00;;;;;;;;;;5015580;28;20061;-85
2023/05/18 06:23:29;;;;;;;9.88;3.58;;;;;;;;;;4997807;28;20029;-85
2023/05/18 06:26:00;;;;;;;5.45;3.10;;;;;;;;;;5017671;28;20048;-84
2023/05/18 06:28:45;;;;;;;5.43;3.08;;;;;;;;;;5031080;28;20095;-84
2023/05/18 06:31:31;;;;;;;6.15;3.05;;;;;;;;;;5000309;28;20075;-84
2023/05/18 06:34:08;;;;;;;8.63;3.00;;;;;;;;;;5015271;28;20037;-86
2023/05/18 06:36:34;;;;;;;8.20;3.17;;;;;;;;;;5028715;28;20029;-85
2023/05/18 06:38:59;;;;;;;4.35;2.85;;;;;;;;;;5013316;28;20042;-86
2023/05/18 06:41:25;;;;;;;5.40;2.83;;;;;;;;;;5026180;28;20029;-85
2023/05/18 06:43:51;;;;;;;7.55;2.85;;;;;;;;;;5030939;28;20048;-85
2023/05/18 06:46:28;;;;;;;6.40;2.90;;;;;;;;;;5023926;28;20029;-85
2023/05/18 06:49:00;;;;;;;8.57;2.40;;;;;;;;;;5038295;28;20574;-86
2023/05/18 06:51:26;;;;;;;4.07;2.38;;;;;;;;;;5009940;28;20053;-86
2023/05/18 06:53:53;;;;;;;6.15;2.60;;;;;;;;;;5010568;28;20029;-85
2023/05/18 06:56:20;;;;;;;4.97;2.60;;;;;;;;;;5027933;28;20040;-87
2023/05/18 06:58:46;;;;;;;6.85;2.50;;;;;;;;;;5028127;28;20061;-86
2023/05/18 07:01:12;;;;;;;5.95;2.78;;;;;;;;;;5041507;28;20028;-86
2023/05/18 07:03:37;;;;;;;8.30;3.60;;;;;;;;;;5056053;28;20078;-86
2023/05/18 07:06:03;;;;;;;8.50;3.63;;;;;;;;;;5049325;28;20033;-88
2023/05/18 07:08:30;;;;;;;5.05;2.97;;;;;;;;;;5026439;28;20087;-87
2023/05/18 07:10:56;;;;;;;5.65;2.88;;;;;;;;;;5038593;28;20024;-87
2023/05/18 07:13:23;;;;;;;9.20;4.25;;;;;;;;;;5037366;28;20040;-87
2023/05/18 07:15:48;;;;;;;6.32;3.30;;;;;;;;;;5033799;28;20043;-87
2023/05/18 07:18:14;;;;;;;4.88;3.30;;;;;;;;;;5027901;28;20124;-87
2023/05/18 07:20:40;;;;;;;6.68;3.53;;;;;;;;;;5021669;28;20120;-87
2023/05/18 07:23:05;;;;;;;6.28;3.08;;;;;;;;;;5042295;28;20033;-87
2023/05/18 07:25:31;;;;;;;7.72;2.95;;;;;;;;;;5039912;28;20033;-86
2023/05/18 07:27:57;;;;;;;6.75;3.00;;;;;;;;;;5019490;28;20120;-88
2023/05/18 07:30:23;;;;;;;7.53;3.03;;;;;;;;;;5049820;28;20017;-87
2023/05/18 07:32:50;;;;;;;8.43;4.05;;;;;;;;;;5045463;28;20025;-87
2023/05/18 07:35:18;;;;;;;8.68;3.60;;;;;;;;;;5023895;28;20071;-87
2023/05/18 07:37:43;;;;;;;7.68;3.10;;;;;;;;;;5044489;28;20489;-87
2023/05/18 07:40:10;;;;;;;7.55;2.88;;;;;;;;;;5054369;28;20037;-87
2023/05/18 07:42:39;;;;;;;7.38;2.92;;;;;;;;;;5051006;28;20094;-89
2023/05/18 07:45:06;;;;;;;6.05;2.90;;;;;;;;;;5040522;28;20045;-85
2023/05/18 07:47:32;;;;;;;7.97;3.10;;;;;;;;;;5020189;28;20029;-86
2023/05/18 07:49:58;;;;;;;10.15;3.30;;;;;;;;;;5035253;28;20030;-85
2023/05/18 07:52:23;;;;;;;6.32;3.00;;;;;;;;;;5015468;28;20053;-85
2023/05/18 07:54:49;;;;;;;7.25;2.80;;;;;;;;;;5027088;28;20041;-85
2023/05/18 07:57:14;;;;;;;7.30;2.92;;;;;;;;;;4999994;28;20033;-85
2023/05/18 07:59:40;;;;;;;7.43;2.72;;;;;;;;;;5033806;28;20475;-85
2023/05/18 08:02:06;;;;;;;6.13;2.72;;;;;;;;;;5032774;28;20414;-87
2023/05/18 08:04:31;;;;;;;7.03;2.75;;;;;;;;;;5008980;28;20040;-86
2023/05/18 08:06:59;;;;;;;10.57;3.00;;;;;;;;;;5048760;28;20029;-85
2023/05/18 08:09:25;;;;;;;8.13;2.88;;;;;;;;;;5018918;28;20053;-83
2023/05/18 08:11:52;;;;;;;8.82;2.88;;;;;;;;;;5000628;28;20478;-83
2023/05/18 08:14:18;;;;;;;7.18;3.13;;;;;;;;;;5036288;28;20041;-85
2023/05/18 08:16:43;;;;;;;8.38;2.85;;;;;;;;;;5027343;28;20116;-82
2023/05/18 08:19:09;;;;;;;5.03;2.60;;;;;;;;;;5031076;28;20107;-83
2023/05/18 08:21:35;;;;;;;6.57;2.38;;;;;;;;;;5038282;28;20087;-85
2023/05/18 08:24:02;;;;;;;8.13;3.00;;;;;;;;;;5042205;28;20191;-88
2023/05/18 08:26:27;;;;;;;7.35;2.67;;;;;;;;;;5038253;28;20033;-86
2023/05/18 08:28:53;;;;;;;7.47;2.70;;;;;;;;;;5019043;28;20810;-86
2023/05/18 08:31:19;;;;;;;5.82;2.70;;;;;;;;;;5034890;28;20089;-86
2023/05/18 08:33:45;;;;;;;6.32;2.75;;;;;;;;;;5016885;28;20033;-86
2023/05/18 08:36:11;;;;;;;6.18;3.05;;;;;;;;;;5026191;28;20162;-86
2023/05/18 08:38:37;;;;;;;5.53;2.70;;;;;;;;;;5044542;28;20041;-87
2023/05/18 08:41:40;;;;;;;9.80;2.60;;;;;;;;;;5019149;28;20033;-86
2023/05/18 08:44:10;;;;;;;6.20;2.50;;;;;;;;;;5037645;28;20045;-86
2023/05/18 08:46:41;;;;;;;6.60;2.40;;;;;;;;;;5040383;28;20032;-86
2023/05/18 08:49:08;;;;;;;5.05;2.15;;;;;;;;;;5051283;28;20033;-84
2023/05/18 08:51:35;;;;;;;7.20;2.40;;;;;;;;;;5050569;28;20398;-84
2023/05/18 08:54:02;;;;;;;8.60;2.70;;;;;;;;;;5013704;28;20032;-85
2023/05/18 08:56:32;;;;;;;7.32;2.47;;;;;;;;;;5045821;28;20037;-86
2023/05/18 08:58:58;;;;;;;8.82;2.47;;;;;;;;;;5039865;28;20068;-85
2023/05/18 09:01:27;;;;;;;4.93;2.40;;;;;;;;;;5035661;28;20130;-87
2023/05/18 09:03:54;;;;;;;6.30;2.40;;;;;;;;;;5023050;28;20048;-84
2023/05/18 09:06:23;;;;;;;8.10;2.38;;;;;;;;;;5018648;28;20032;-84
2023/05/18 09:08:51;;;;;;;8.13;2.50;;;;;;;;;;5049221;28;20052;-85
2023/05/18 09:11:17;;;;;;;10.52;2.53;;;;;;;;;;5027609;28;20116;-85
2023/05/18 09:13:43;;;;;;;6.95;2.83;;;;;;;;;;5042369;28;20060;-87
2023/05/18 09:16:08;;;;;;;7.32;2.70;;;;;;;;;;5036520;28;20471;-83
2023/05/18 09:18:34;;;;;;;5.90;2.10;;;;;;;;;;5036274;28;20063;-85
2023/05/18 09:21:00;;;;;;;8.90;2.42;;;;;;;;;;5048716;28;20037;-85
2023/05/18 09:23:25;;;;;;;7.13;2.40;;;;;;;;;;5051523;28;20091;-84
2023/05/18 09:25:51;;;;;;;10.70;2.60;;;;;;;;;;5030077;28;20037;-85
2023/05/18 09:28:32;;;;;;;7.82;2.60;;;;;;;;;;5046394;28;20036;-86
2023/05/18 09:30:57;;;;;;;6.57;2.10;;;;;;;;;;5033177;28;20372;-85
2023/05/18 09:33:23;;;;;;;7.72;2.30;;;;;;;;;;5036356;28;20063;-86
2023/05/18 09:35:50;;;;;;;6.32;2.25;;;;;;;;;;5036978;28;20460;-87
2023/05/18 09:38:20;;;;;;;6.13;2.30;;;;;;;;;;5054479;28;20422;-86
2023/05/18 09:40:47;;;;;;;5.72;2.22;;;;;;;;;;5050853;28;20049;-86
2023/05/18 09:43:13;;;;;;;8.50;2.83;;;;;;;;;;5027875;28;20036;-86
2023/05/18 09:45:44;;;;;;;8.43;2.78;;;;;;;;;;5015723;28;20107;-86
2023/05/18 09:48:10;;;;;;;8.02;2.40;;;;;;;;;;5021002;28;20172;-85
2023/05/18 09:50:36;;;;;;;7.40;2.30;;;;;;;;;;5020679;28;20083;-85
2023/05/18 09:53:09;;;;;;;8.73;2.30;;;;;;;;;;5036385;28;20037;-86
2023/05/18 09:55:37;;;;;;;5.15;2.45;;;;;;;;;;5017927;28;20119;-85
2023/05/18 09:58:06;;;;;;;8.13;2.28;;;;;;;;;;5040823;28;20085;-84
2023/05/18 10:00:35;;;;;;;10.10;3.28;;;;;;;;;;5044055;28;20434;-86
2023/05/18 10:03:02;;;;;;;11.55;2.45;;;;;;;;;;5033800;28;20041;-84
2023/05/18 10:05:32;;;;;;;8.00;2.17;;;;;;;;;;5016478;28;20045;-84
2023/05/18 10:07:59;;;;;;;5.45;2.40;;;;;;;;;;5034631;28;20120;-83
2023/05/18 10:10:28;;;;;;;8.02;2.40;;;;;;;;;;5030787;28;20029;-84
2023/05/18 10:12:56;;;;;;;8.65;2.70;;;;;;;;;;5012660;28;20503;-83
2023/05/18 10:15:22;;;;;;;6.88;2.65;;;;;;;;;;5032713;28;20033;-83
2023/05/18 10:17:50;;;;;;;3.75;2.13;;;;;;;;;;5004643;28;20037;-85
2023/05/18 10:20:23;;;;;;;10.18;3.05;;;;;;;;;;5038174;28;20029;-87
2023/05/18 10:22:49;;;;;;;7.10;2.22;;;;;;;;;;5040542;28;20028;-86
2023/05/18 10:25:21;;;;;;;5.93;2.22;;;;;;;;;;5049458;28;20040;-85
2023/05/18 10:27:48;;;;;;;8.57;2.80;;;;;;;;;;5039290;28;20088;-84
2023/05/18 10:30:16;;;;;;;8.50;3.40;;;;;;;;;;5024594;28;20032;-82
2023/05/18 10:32:42;;;;;;;7.90;3.40;;;;;;;;;;5039569;28;20041;-82
2023/05/18 10:35:09;;;;;;;7.30;3.25;;;;;;;;;;5001108;28;20066;-83
2023/05/18 10:37:38;;;;;;;8.73;3.03;;;;;;;;;;4989367;28;20470;-83
2023/05/18 10:40:06;;;;;;;7.72;2.97;;;;;;;;;;5035124;28;20033;-83
2023/05/18 10:42:32;;;;;;;8.60;3.08;;;;;;;;;;5014473;28;20030;-84
2023/05/18 10:45:00;;;;;;;11.07;2.50;;;;;;;;;;5026825;28;20125;-82
2023/05/18 10:47:28;;;;;;;7.78;2.70;;;;;;;;;;5004560;28;20044;-83
2023/05/18 10:49:56;;;;;;;6.75;2.53;;;;;;;;;;5039097;28;20034;-85
2023/05/18 10:52:23;;;;;;;7.05;2.40;;;;;;;;;;5020159;28;20053;-84
2023/05/18 10:54:48;;;;;;;10.73;2.80;;;;;;;;;;5024282;28;20048;-87
2023/05/18 10:57:16;;;;;;;6.57;2.80;;;;;;;;;;5042015;28;20026;-85
2023/05/18 10:59:43;;;;;;;6.13;2.70;;;;;;;;;;5034131;28;20040;-86
2023/05/18 11:02:17;;;;;;;7.22;2.63;;;;;;;;;;5030005;28;20400;-86
2023/05/18 11:04:46;;;;;;;6.45;2.90;;;;;;;;;;5027726;28;20034;-86
2023/05/18 11:07:12;;;;;;;7.57;2.70;;;;;;;;;;5012647;28;20043;-86
2023/05/18 11:09:42;;;;;;;7.68;2.80;;;;;;;;;;5028132;28;20037;-86
2023/05/18 11:12:15;;;;;;;7.43;2.50;;;;;;;;;;5040331;28;20030;-86
2023/05/18 11:14:52;;;;;;;6.55;2.47;;;;;;;;;;5043155;28;20037;-86
2023/05/18 11:17:21;;;;;;;4.10;2.28;;;;;;;;;;5011936;28;20118;-85
2023/05/18 11:20:05;;;;;;;5.88;2.50;;;;;;;;;;5009746;28;20400;-86
2023/05/18 11:22:58;;;;;;;8.40;3.10;;;;;;;;;;5019510;28;20042;-86
2023/05/18 11:25:26;;;;;;;5.90;2.90;;;;;;;;;;5043111;28;20349;-86
2023/05/18 11:27:56;;;;;;;4.93;2.50;;;;;;;;;;5057623;28;20043;-86
2023/05/18 11:30:35;;;;;;;6.40;2.63;;;;;;;;;;5043867;28;20380;-86
2023/05/18 11:33:31;;;;;;;5.35;2.30;;;;;;;;;;5044457;28;20091;-86
2023/05/18 11:36:01;;;;;;;6.05;2.58;;;;;;;;;;5051050;28;20518;-86
2023/05/18 11:39:07;;;;;;;5.65;2.40;;;;;;;;;;5044939;28;20036;-87
2023/05/18 11:41:38;;;;;;;5.35;2.40;;;;;;;;;;5045559;28;20081;-87
2023/05/18 11:44:15;;;;;;;6.35;2.30;;;;;;;;;;5038162;28;20495;-87
2023/05/18 11:47:03;;;;;;;6.88;2.60;;;;;;;;;;5041592;28;20038;-87
2023/05/18 11:49:31;;;;;;;4.63;2.30;;;;;;;;;;5001070;28;20128;-87
2023/05/18 11:52:17;;;;;;;6.70;2.50;;;;;;;;;;5032653;28;20057;-87
2023/05/18 11:54:51;;;;;;;4.72;2.35;;;;;;;;;;5012253;28;20129;-88
2023/05/18 11:57:18;;;;;;;6.57;2.30;;;;;;;;;;5040687;28;20045;-87
2023/05/18 11:59:46;;;;;;;4.80;2.30;;;;;;;;;;5020264;28;20657;-87
2023/05/18 12:02:18;;;;;;;6.57;2.30;;;;;;;;;;5022859;28;20037;-87
2023/05/18 12:04:49;;;;;;;5.10;2.80;;;;;;;;;;5038574;28;20406;-87
2023/05/18 12:07:18;;;;;;;4.85;2.50;;;;;;;;;;5046638;28;20036;-88
2023/05/18 12:09:45;;;;;;;4.90;2.40;;;;;;;;;;5030411;28;20040;-88
2023/05/18 12:12:12;;;;;;;5.03;2.55;;;;;;;;;;5039690;28;20637;-88
2023/05/18 12:14:41;;;;;;;5.05;2.42;;;;;;;;;;5022322;28;20586;-87
2023/05/18 12:17:07;;;;;;;5.32;2.42;;;;;;;;;;5023797;28;20069;-87
2023/05/18 12:19:51;;;;;;;6.18;2.78;;;;;;;;;;5036210;28;20042;-88
2023/05/18 12:22:16;;;;;;;;;;;;;;;;;;5041176;28;20108;-88
2023/05/18 12:24:43;;;;;;;6.13;2.97;;;;;;;;;;5042797;28;19913;-87
2023/05/18 12:27:10;;;;;;;4.65;2.83;;;;;;;;;;5027727;28;20044;-87
2023/05/18 12:29:40;;;;;;;6.63;2.85;;;;;;;;;;5044651;28;20052;-88
2023/05/18 12:32:10;;;;;;;6.32;2.70;;;;;;;;;;5020562;28;20116;-87
2023/05/18 12:34:37;;;;;;;4.43;2.67;;;;;;;;;;5020864;28;20068;-88
2023/05/18 12:37:04;;;;;;;5.97;2.75;;;;;;;;;;5025872;28;20041;-88
2023/05/18 12:39:30;;;;;;;5.15;2.75;;;;;;;;;;5044652;28;20033;-87
2023/05/18 12:42:13;;;;;;;7.05;2.92;;;;;;;;;;5031854;28;20514;-87
2023/05/18 12:44:40;;;;;;;;;;;;;;;;;;5045411;28;20097;-87
2023/05/18 12:47:05;;;;;;;7.63;3.00;;;;;;;;;;5045000;28;19913;-87
2023/05/18 12:49:38;;;;;;;5.22;3.00;;;;;;;;;;5023368;28;20044;-88
2023/05/18 12:52:12;;;;;;;6.22;2.80;;;;;;;;;;5035940;28;20068;-87
2023/05/18 12:55:09;;;;;;;;;;;;;;;;;;5034337;28;20049;-88
2023/05/18 12:57:36;;;;;;;4.80;2.70;;;;;;;;;;5020225;28;19916;-88
2023/05/18 13:00:08;;;;;;;7.40;3.00;;;;;;;;;;5030327;28;20037;-87
2023/05/18 13:02:36;;;;;;;6.75;2.85;;;;;;;;;;5010669;28;20045;-88
2023/05/18 13:05:07;;;;;;;5.30;2.80;;;;;;;;;;5042639;28;20064;-88
2023/05/18 13:07:51;;;;;;;5.47;2.92;;;;;;;;;;5038091;28;20104;-88
2023/05/18 13:10:18;;;;;;;3.70;2.85;;;;;;;;;;5052700;28;20025;-89
2023/05/18 13:12:48;;;;;;;5.32;2.83;;;;;;;;;;5033763;28;20045;-88
2023/05/18 13:15:19;;;;;;;9.07;2.90;;;;;;;;;;5014562;28;20061;-89
2023/05/18 13:18:01;;;;;;;5.47;3.10;;;;;;;;;;5043291;28;20037;-88
2023/05/18 13:20:40;;;;;;;28.65;14.93;;;;;;;;;;5012669;28;20033;-88
2023/05/18 13:23:10;;;;;;;38.45;19.50;;;;;;;;;;5040532;28;20037;-86
2023/05/18 13:25:35;;;;;;;278.48;132.82;;;;;;;;;;5044187;28;20045;-88
2023/05/18 13:28:02;;;;;;;9.02;4.60;;;;;;;;;;5042888;28;20116;-87
2023/05/18 13:30:27;;;;;;;7.45;3.75;;;;;;;;;;5043304;28;20037;-87
2023/05/18 13:32:53;;;;;;;100.30;37.80;;;;;;;;;;5043850;28;20132;-88
2023/05/18 13:35:19;;;;;;;70.45;34.85;;;;;;;;;;5042959;28;20094;-87
2023/05/18 13:37:47;;;;;;;34.95;18.45;;;;;;;;;;5056848;28;20054;-88
2023/05/18 13:40:14;;;;;;;85.25;40.35;;;;;;;;;;5040066;28;20071;-88
2023/05/18 13:42:40;;;;;;;72.50;37.92;;;;;;;;;;5038061;28;20045;-87
2023/05/18 13:45:06;;;;;;;18.85;8.82;;;;;;;;;;5032699;28;20056;-89
2023/05/18 13:47:31;;;;;;;41.08;24.10;;;;;;;;;;5030573;28;20065;-88
2023/05/18 13:49:57;;;;;;;8.82;5.85;;;;;;;;;;5046090;28;20029;-88
2023/05/18 13:52:22;;;;;;;20.20;13.45;;;;;;;;;;5023188;28;20041;-88
2023/05/18 13:54:48;;;;;;;8.90;5.05;;;;;;;;;;5041820;28;20125;-88
2023/05/18 13:57:13;;;;;;;13.57;5.57;;;;;;;;;;5042824;28;20048;-88
2023/05/18 13:59:39;;;;;;;6.18;3.40;;;;;;;;;;5042595;28;20041;-87
2023/05/18 14:02:04;;;;;;;6.50;3.65;;;;;;;;;;5032282;28;20049;-88
2023/05/18 14:04:30;;;;;;;5.88;3.90;;;;;;;;;;5040286;28;20041;-87
2023/05/18 14:06:57;;;;;;;5.15;3.30;;;;;;;;;;5020799;28;20037;-88
2023/05/18 14:09:27;;;;;;;6.82;3.70;;;;;;;;;;5039126;28;20052;-87
2023/05/18 14:11:53;;;;;;;6.45;3.00;;;;;;;;;;5035116;28;20063;-86
2023/05/18 14:14:19;;;;;;;5.65;2.67;;;;;;;;;;5044660;28;20711;-87
2023/05/18 14:16:44;;;;;;;8.50;4.22;;;;;;;;;;5048843;28;20065;-89
2023/05/18 14:19:10;;;;;;;5.13;3.17;;;;;;;;;;5027164;28;20033;-87
2023/05/18 14:21:35;;;;;;;5.20;3.38;;;;;;;;;;5042869;28;20041;-86
2023/05/18 14:24:02;;;;;;;7.80;3.20;;;;;;;;;;5021279;28;20091;-88
2023/05/18 14:26:28;;;;;;;7.90;3.13;;;;;;;;;;5041131;28;20069;-88
2023/05/18 14:28:55;;;;;;;6.97;3.00;;;;;;;;;;5024028;28;20128;-87
2023/05/18 14:31:20;;;;;;;6.53;2.92;;;;;;;;;;5048995;28;20067;-87
2023/05/18 14:33:45;;;;;;;9.00;4.22;;;;;;;;;;5033201;28;20026;-85
2023/05/18 14:36:11;;;;;;;4.57;2.85;;;;;;;;;;5033542;28;20041;-86
2023/05/18 14:38:37;;;;;;;6.43;2.97;;;;;;;;;;5019272;28;20110;-86
2023/05/18 14:41:02;;;;;;;6.63;2.83;;;;;;;;;;5035563;28;20411;-87
2023/05/18 14:43:28;;;;;;;6.35;3.00;;;;;;;;;;5015271;28;20175;-86
2023/05/18 14:45:53;;;;;;;6.07;2.70;;;;;;;;;;5016003;28;20040;-84
2023/05/18 14:48:19;;;;;;;5.38;2.88;;;;;;;;;;5022404;28;20133;-86
2023/05/18 14:50:44;;;;;;;5.68;2.80;;;;;;;;;;5043957;28;20037;-87